Time;durP1;ratioP1;P1;durP2;ratioP2;P2;SDS_P1;SDS_P2;PMS_P1;PMS_P2;Temp;Humidity;BMP_temperature;BMP_pressure;BME280_temperature;BME280_humidity;BME280_pressure;Samples;Min_cycle;Max_cycle;Signal;HPM_P1;HPM_P2
2021/04/18 00:01:09;;;;;;;19.75;14.68;;;;;;;5.04;96.34;93987.41;827589;71;30281;-79
2021/04/18 00:16:17;;;;;;;22.17;15.95;;;;;;;4.95;94.50;93957.30;826776;71;32781;-79
2021/04/18 00:31:09;;;;;;;25.92;15.75;;;;;;;5.06;94.67;93955.42;828985;71;30436;-78
2021/04/18 00:46:11;;;;;;;27.45;17.98;;;;;;;4.95;95.91;93959.13;833457;71;30277;-78
2021/04/18 01:01:10;;;;;;;29.63;19.60;;;;;;;4.95;96.02;93965.63;827771;71;30410;-76
2021/04/18 01:16:09;;;;;;;26.57;18.60;;;;;;;5.00;95.59;93942.96;829065;71;29544;-80
2021/04/18 01:31:09;;;;;;;29.60;19.35;;;;;;;4.95;95.38;93955.99;827883;71;30046;-79
2021/04/18 01:46:09;;;;;;;26.93;17.50;;;;;;;4.89;95.32;93945.36;827974;71;27733;-77
2021/04/18 02:01:13;;;;;;;28.85;18.65;;;;;;;4.83;95.53;93950.31;802202;73;32111;-78
2021/04/18 02:16:10;;;;;;;32.55;19.45;;;;;;;4.74;96.04;93933.17;833582;71;30508;-78
2021/04/18 02:31:10;;;;;;;28.25;16.87;;;;;;;4.74;95.92;93947.98;827542;71;30755;-76
2021/04/18 02:46:10;;;;;;;26.33;16.57;;;;;;;4.74;94.58;93931.88;827731;71;29733;-78
2021/04/18 03:01:47;;;;;;;28.65;17.45;;;;;;;4.75;94.44;93944.36;827467;71;32663;-76
2021/04/18 03:16:14;;;;;;;24.35;17.15;;;;;;;4.78;93.07;93967.98;835217;70;32802;-79
2021/04/18 03:31:16;;;;;;;31.12;19.50;;;;;;;4.89;92.11;93977.84;828876;71;32755;-77
2021/04/18 03:46:09;;;;;;;31.37;19.25;;;;;;;4.78;92.36;93956.28;827940;71;29780;-77
2021/04/18 04:01:11;;;;;;;34.43;19.67;;;;;;;4.61;93.61;93955.30;833654;71;28852;-78
2021/04/18 04:16:16;;;;;;;32.55;18.80;;;;;;;4.59;94.55;93967.77;834341;71;32778;-78
2021/04/18 04:31:20;;;;;;;33.80;20.75;;;;;;;4.46;95.35;93987.81;826719;71;32802;-75
2021/04/18 04:46:09;;;;;;;32.90;19.40;;;;;;;4.41;96.17;94006.75;833513;71;31145;-78
2021/04/18 05:01:14;;;;;;;32.30;19.23;;;;;;;4.42;96.36;94010.15;828292;71;32781;-79
2021/04/18 05:16:10;;;;;;;33.95;19.73;;;;;;;4.44;96.94;93992.98;828652;71;29649;-78
2021/04/18 05:31:14;;;;;;;26.20;16.00;;;;;;;4.39;97.03;93973.00;828681;71;32133;-79
2021/04/18 05:46:16;;;;;;;24.10;14.78;;;;;;;4.72;96.76;93991.12;816743;71;32931;-80
2021/04/18 06:01:21;;;;;;;29.57;16.42;;;;;;;4.85;94.92;93996.31;827016;71;32779;-78
2021/04/18 06:16:19;;;;;;;26.87;16.35;;;;;;;5.14;94.09;94004.81;802332;74;32807;-74
2021/04/18 06:31:15;;;;;;;23.18;15.60;;;;;;;5.47;93.03;94013.00;828548;71;33230;-75
2021/04/18 06:46:20;;;;;;;21.57;13.70;;;;;;;5.72;91.71;94016.02;828300;71;32771;-73
2021/04/18 07:01:16;;;;;;;20.60;14.50;;;;;;;5.79;90.18;94025.60;827821;71;32818;-74
2021/04/18 07:16:26;;;;;;;21.90;14.15;;;;;;;6.23;89.66;94032.66;826804;71;32758;-75
2021/04/18 07:31:09;;;;;;;24.12;14.73;;;;;;;6.69;86.94;94032.31;834119;71;30051;-75
2021/04/18 07:46:17;;;;;;;25.05;15.00;;;;;;;6.58;86.67;94047.77;826953;71;32794;-74
2021/04/18 08:01:10;;;;;;;30.97;17.55;;;;;;;6.47;86.42;94052.80;827675;71;30505;-74
2021/04/18 08:16:10;;;;;;;31.77;18.10;;;;;;;6.68;86.35;94056.81;818582;71;30717;-73
2021/04/18 08:31:10;;;;;;;30.90;18.20;;;;;;;6.91;85.57;94063.66;834317;71;30861;-72
2021/04/18 08:46:19;;;;;;;28.52;18.27;;;;;;;7.18;84.01;94067.84;826954;71;33229;-76
2021/04/18 09:02:00;;;;;;;30.82;18.75;;;;;;;7.62;83.44;94072.07;827522;71;30196;-75
2021/04/18 09:16:35;;;;;;;28.87;18.30;;;;;;;7.96;82.16;94077.65;821975;71;32915;-76
2021/04/18 09:31:16;;;;;;;29.95;18.48;;;;;;;8.30;80.71;94085.06;826531;71;32831;-74
2021/04/18 09:46:12;;;;;;;31.00;18.75;;;;;;;8.66;79.85;94072.78;828252;71;31629;-75
2021/04/18 10:01:29;;;;;;;24.60;15.38;;;;;;;9.24;79.89;94076.27;832855;71;30279;-74
2021/04/18 10:16:17;;;;;;;31.68;20.90;;;;;;;9.85;79.80;94086.67;826620;71;33278;-74
2021/04/18 10:31:16;;;;;;;34.43;21.37;;;;;;;;;;832410;71;33170;-74
2021/04/18 10:46:10;;;;;;;34.75;21.95;;;;;;;10.30;77.59;94094.69;827635;71;30948;-74
2021/04/18 11:01:15;;;;;;;44.53;28.00;;;;;;;10.28;77.31;94096.80;825659;71;33336;-75
2021/04/18 11:16:13;;;;;;;44.03;26.85;;;;;;;10.40;76.61;93702.56;827090;71;32669;-74
2021/04/18 11:31:09;;;;;;;40.70;25.55;;;;;;;;;;827384;71;30877;-74
2021/04/18 11:46:08;;;;;;;40.52;25.50;;;;;;;10.89;76.36;94102.55;833389;71;29720;-75
2021/04/18 12:01:14;;;;;;;39.92;26.10;;;;;;;10.65;75.92;94109.42;835104;71;32743;-78
2021/04/18 12:16:09;;;;;;;34.67;21.97;;;;;;;10.43;75.02;94117.48;827048;71;29740;-74
2021/04/18 12:31:08;;;;;;;37.50;24.90;;;;;;;10.26;76.33;94112.05;827631;71;30013;-73
2021/04/18 12:46:14;;;;;;;32.55;22.70;;;;;;;10.07;77.02;94129.98;833442;71;32713;-75
2021/04/18 13:01:14;;;;;;;40.92;23.67;;;;;;;10.00;77.23;94130.94;833146;71;33615;-73
2021/04/18 13:16:07;;;;;;;51.02;27.37;;;;;;;;;;835285;71;29866;-73
2021/04/18 13:31:14;;;;;;;43.83;25.23;;;;;;;9.83;79.28;94161.64;818993;71;32819;-75
2021/04/18 13:46:09;;;;;;;46.48;26.85;;;;;;;9.68;79.95;94173.72;827623;71;30326;-76
2021/04/18 14:01:09;;;;;;;39.45;24.27;;;;;;;9.54;80.69;94190.17;827377;71;29039;-74
2021/04/18 14:16:14;;;;;;;36.75;21.62;;;;;;;9.59;80.17;94195.85;821945;71;31178;-75
2021/04/18 14:31:09;;;;;;;35.08;21.45;;;;;;;9.41;80.73;94201.41;827226;71;29268;-75
2021/04/18 14:46:16;;;;;;;38.48;23.50;;;;;;;9.47;80.78;94225.14;832419;71;31796;-75
2021/04/18 15:01:47;;;;;;;43.68;25.95;;;;;;;9.50;80.85;94225.86;832649;71;31720;-78
2021/04/18 15:16:10;;;;;;;42.10;24.55;;;;;;;9.56;81.76;94236.50;820176;71;30385;-75
2021/04/18 15:31:09;;;;;;;41.18;24.23;;;;;;;9.56;82.72;94256.14;828565;71;28666;-76
2021/04/18 15:46:14;;;;;;;37.30;23.57;;;;;;;9.50;82.48;94246.81;828016;71;31872;-75
2021/04/18 16:01:10;;;;;;;35.63;19.80;;;;;;;9.60;81.93;94266.84;827258;71;30746;-75
2021/04/18 16:16:12;;;;;;;24.92;17.70;;;;;;;;;;833157;71;32082;-74
2021/04/18 16:31:09;;;;;;;21.00;15.00;;;;;;;9.63;80.67;94284.61;816571;71;28754;-75
2021/04/18 16:46:19;;;;;;;18.57;13.32;;;;;;;9.54;79.74;94308.03;793039;74;32374;-81
2021/04/18 17:01:09;;;;;;;16.45;12.68;;;;;;;9.52;79.47;94317.25;834481;71;28582;-80
2021/04/18 17:16:15;;;;;;;18.00;13.60;;;;;;;9.62;78.99;94329.66;827537;71;32680;-80
2021/04/18 17:31:47;;;;;;;21.35;15.95;;;;;;;9.71;82.69;94332.42;788242;75;32041;-80
2021/04/18 17:46:13;;;;;;;20.77;14.90;;;;;;;;;;828830;71;30962;-81
2021/04/18 18:01:10;;;;;;;19.98;15.78;;;;;;;;;;828943;71;29166;-79
2021/04/18 18:16:26;;;;;;;28.17;18.27;;;;;;;9.61;78.38;94374.46;826651;71;32734;-81
2021/04/18 18:46:09;;;;;;;21.87;17.05;;;;;;;9.57;78.12;94383.44;820885;71;29731;-81
2021/04/18 19:01:20;;;;;;;30.02;20.12;;;;;;;9.31;78.38;94387.47;819652;71;32726;-80
2021/04/18 19:16:18;;;;;;;32.25;21.00;;;;;;;;;;825237;71;33225;-81
2021/04/18 19:31:18;;;;;;;21.05;15.88;;;;;;;8.84;79.35;94384.63;827662;71;32820;-83
2021/04/18 19:46:14;;;;;;;22.35;17.12;;;;;;;8.67;80.22;94385.58;817885;71;32922;-81
2021/04/18 20:01:20;;;;;;;38.35;27.48;;;;;;;8.50;80.57;94376.87;801745;74;32911;-81
2021/04/18 20:16:13;;;;;;;40.75;26.45;;;;;;;8.38;81.24;94366.22;835558;71;31960;-82
2021/04/18 20:31:16;;;;;;;40.38;27.65;;;;;;;8.15;80.57;94365.64;829727;71;32632;-79
2021/04/18 20:46:15;;;;;;;35.13;23.80;;;;;;;7.87;80.30;94370.59;829148;71;32775;-81
2021/04/18 21:01:40;;;;;;;42.33;27.27;;;;;;;7.63;81.04;94375.19;795761;74;29833;-80
2021/04/18 21:16:17;;;;;;;45.12;27.87;;;;;;;7.49;81.79;94368.23;835948;70;32750;-81
2021/04/18 21:31:18;;;;;;;50.20;28.57;;;;;;;7.41;83.50;94356.53;835267;71;32735;-79
2021/04/18 21:46:16;;;;;;;47.55;26.65;;;;;;;7.22;82.49;94344.66;829780;71;32730;-82
2021/04/18 22:01:10;;;;;;;47.43;27.07;;;;;;;6.88;84.35;94361.51;829472;71;29756;-81
2021/04/18 22:16:14;;;;;;;47.15;25.40;;;;;;;6.88;84.27;94353.16;834510;71;32737;-82
2021/04/18 22:31:14;;;;;;;38.45;24.50;;;;;;;7.07;84.03;94345.49;828332;71;32783;-81
2021/04/18 22:46:09;;;;;;;28.87;20.02;;;;;;;7.20;83.12;94341.00;828998;71;30462;-80
2021/04/18 23:01:17;;;;;;;25.80;18.50;;;;;;;7.32;81.98;94321.61;829119;71;33032;-80
2021/04/18 23:16:11;;;;;;;28.47;18.73;;;;;;;7.38;81.83;94304.86;829986;70;31428;-83
2021/04/18 23:31:16;;;;;;;24.23;16.27;;;;;;;7.13;81.38;94246.58;828722;71;32742;-80
2021/04/18 23:46:11;;;;;;;25.02;17.85;;;;;;;7.53;81.20;94277.35;828073;71;30407;-82
